.
WxDataArchive / Data Records for 2016-04-21
2016-04-20 April 2016 2016-04-22

Data Records for Thursday, 21 April 2016

Time	Temp	Chill	HIndex	Humid	Dewpt	 Wind 	HiWind	WindDir	Rain 	Barom
-----	----	-----	------	-----	-----	------	------	-------	-----	-----
00:00	55.9	55.9	55.9	52	38.5	0	2	90	0.00	29.924 
00:05	55.7	55.7	55.7	52	38.3	0	2	90	0.00	29.924 
00:10	55.7	55.7	55.7	52	38.3	0	3	90	0.00	29.924 
00:15	55.6	55.6	55.6	52	38.3	0	1	90	0.00	29.920 
00:20	55.4	55.4	55.4	53	38.6	0	0	---	0.00	29.920 
00:25	55.4	55.4	55.4	53	38.6	0	1	90	0.00	29.920 
00:30	55.3	55.3	55.3	54	38.9	0	1	90	0.00	29.925 
00:35	55.1	55.1	55.1	53	38.3	0	2	90	0.00	29.925 
00:40	55.1	55.1	55.1	54	38.8	0	2	90	0.00	29.925 
00:45	55.1	55.1	55.1	55	39.2	0	3	90	0.00	29.924 
00:50	55.0	55.0	55.0	57	40.0	0	2	90	0.00	29.924 
00:55	54.7	54.7	54.7	57	39.8	1	2	90	0.00	29.924 
01:00	54.7	54.7	54.7	59	40.7	0	1	90	0.00	29.941 
01:05	54.7	54.7	54.7	59	40.7	0	1	90	0.00	29.941 
01:10	54.5	54.5	54.5	59	40.5	0	1	90	0.00	29.941 
01:15	54.5	54.5	54.5	59	40.5	0	1	90	0.00	29.941 
01:20	54.5	54.5	54.5	60	40.9	0	1	90	0.00	29.941 
01:25	54.5	54.5	54.5	59	40.5	0	2	90	0.00	29.941 
01:30	54.5	54.5	54.5	60	40.9	0	0	---	0.00	29.948 
01:35	54.5	54.5	54.5	63	42.2	0	1	90	0.00	29.948 
01:40	54.2	54.2	54.2	63	41.9	0	1	90	0.00	29.948 
01:45	54.1	54.1	54.1	62	41.4	0	0	---	0.00	29.924 
01:50	53.9	53.9	53.9	63	41.6	0	0	---	0.00	29.924 
01:55	53.8	53.8	53.8	63	41.5	0	1	90	0.00	29.924 
02:00	53.8	53.8	53.8	63	41.5	0	2	90	0.00	29.904 
02:05	53.9	53.9	53.9	62	41.2	0	2	90	0.00	29.904 
02:10	53.9	53.9	53.9	61	40.8	0	2	90	0.00	29.904 
02:15	53.9	53.9	53.9	62	41.2	0	1	90	0.00	29.912 
02:20	54.1	54.1	54.1	63	41.8	0	1	90	0.00	29.912 
02:25	53.9	53.9	53.9	63	41.6	0	1	90	0.00	29.912 
02:30	53.9	53.9	53.9	64	42.0	0	0	---	0.00	29.921 
02:35	53.9	53.9	53.9	65	42.4	0	1	90	0.00	29.921 
02:40	53.8	53.8	53.8	67	43.1	0	1	90	0.00	29.921 
02:45	53.6	53.6	53.6	67	42.9	0	2	90	0.00	29.925 
02:50	53.6	53.6	53.6	67	42.9	0	1	90	0.00	29.925 
02:55	53.6	53.6	53.6	68	43.3	0	0	---	0.00	29.925 
03:00	53.5	53.5	53.5	69	43.6	0	0	---	0.00	29.920 
03:05	53.5	53.5	53.5	69	43.6	0	0	---	0.00	29.920 
03:10	53.5	53.5	53.5	69	43.6	0	0	---	0.00	29.920 
03:15	53.5	53.5	53.5	71	44.3	0	1	90	0.00	29.904 
03:20	53.3	53.3	53.3	72	44.5	0	0	---	0.00	29.904 
03:25	53.2	53.2	53.2	73	44.8	0	0	---	0.00	29.904 
03:30	53.1	53.1	53.1	75	45.4	0	0	---	0.00	29.904 
03:35	52.9	52.9	52.9	76	45.5	0	0	---	0.00	29.904 
03:40	52.8	52.8	52.8	77	45.8	0	0	---	0.00	29.904 
03:45	52.8	52.8	52.8	77	45.8	0	0	---	0.00	29.903 
03:50	52.6	52.6	52.6	77	45.6	0	0	---	0.00	29.903 
03:55	52.5	52.5	52.5	78	45.8	0	0	---	0.00	29.903 
04:00	52.3	52.3	52.3	77	45.3	0	0	---	0.00	29.893 
04:05	52.3	52.3	52.3	77	45.3	0	0	---	0.00	29.893 
04:10	52.2	52.2	52.2	77	45.2	0	1	90	0.00	29.893 
04:15	52.3	52.3	52.3	78	45.6	0	1	90	0.00	29.895 
04:20	52.2	52.2	52.2	78	45.5	0	0	---	0.00	29.895 
04:25	52.2	52.2	52.2	78	45.5	0	0	---	0.00	29.895 
04:30	52.2	52.2	52.2	79	45.9	0	0	---	0.01	29.887 
04:35	52.2	52.2	52.2	79	45.9	0	0	---	0.00	29.887 
04:40	52.0	52.0	52.0	79	45.7	0	0	---	0.00	29.887 
04:45	52.0	52.0	52.0	79	45.7	0	0	---	0.00	29.880 
04:50	51.9	51.9	51.9	79	45.6	0	0	---	0.00	29.880 
04:55	51.9	51.9	51.9	79	45.6	0	0	---	0.00	29.880 
05:00	51.9	51.9	51.9	80	45.9	0	0	---	0.00	29.877 
05:05	51.9	51.9	51.9	80	45.9	0	0	---	0.00	29.877 
05:10	51.7	51.7	51.7	79	45.4	0	2	90	0.00	29.877 
05:15	51.7	51.7	51.7	79	45.4	0	1	90	0.00	29.874 
05:20	51.7	51.7	51.7	79	45.4	0	1	90	0.00	29.874 
05:25	51.7	51.7	51.7	80	45.7	0	1	90	0.00	29.874 
05:30	51.6	51.6	51.6	80	45.6	0	0	---	0.00	29.873 
05:35	51.6	51.6	51.6	80	45.6	0	0	---	0.00	29.873 
05:40	51.4	51.4	51.4	79	45.1	0	0	---	0.00	29.873 
05:45	51.4	51.4	51.4	79	45.1	0	0	---	0.00	29.874 
05:50	51.4	51.4	51.4	79	45.1	0	0	---	0.00	29.874 
05:55	51.4	51.4	51.4	79	45.1	0	2	90	0.00	29.874 
06:00	51.4	51.4	51.4	80	45.4	0	2	90	0.00	29.864 
06:05	51.3	51.3	51.3	79	45.0	0	1	90	0.00	29.864 
06:10	51.3	51.3	51.3	79	45.0	0	1	90	0.00	29.864 
06:15	51.1	51.1	51.1	79	44.8	0	0	---	0.00	29.864 
06:20	51.1	51.1	51.1	79	44.8	0	0	---	0.00	29.864 
06:25	51.1	51.1	51.1	79	44.8	0	0	---	0.00	29.864 
06:30	51.1	51.1	51.1	79	44.8	0	0	---	0.00	29.864 
06:35	51.1	51.1	51.1	78	44.5	0	0	---	0.00	29.864 
06:40	51.1	51.1	51.1	78	44.5	0	2	90	0.00	29.864 
06:45	51.1	51.1	51.1	78	44.5	0	0	---	0.00	29.876 
06:50	51.1	51.1	51.1	78	44.5	0	0	---	0.00	29.876 
06:55	51.3	51.3	51.3	79	45.0	0	0	---	0.00	29.876 
07:00	51.3	51.3	51.3	79	45.0	0	1	90	0.00	29.877 
07:05	51.3	51.3	51.3	79	45.0	0	0	---	0.00	29.877 
07:10	51.3	51.3	51.3	80	45.3	0	1	90	0.00	29.877 
07:15	51.3	51.3	51.3	80	45.3	0	0	---	0.00	29.880 
07:20	51.3	51.3	51.3	81	45.7	0	1	90	0.00	29.880 
07:25	51.3	51.3	51.3	81	45.7	0	1	90	0.00	29.880 
07:30	51.3	51.3	51.3	82	46.0	0	2	90	0.00	29.879 
07:35	51.3	51.3	51.3	83	46.3	0	1	90	0.00	29.879 
07:40	51.3	51.3	51.3	83	46.3	0	0	---	0.00	29.879 
07:45	51.3	51.3	51.3	82	46.0	0	2	90	0.00	29.877 
07:50	51.3	51.3	51.3	82	46.0	0	2	90	0.00	29.877 
07:55	51.3	51.3	51.3	81	45.7	0	2	90	0.00	29.877 
08:00	51.3	51.3	51.3	82	46.0	0	2	90	0.00	29.867 
08:05	51.1	51.1	51.1	82	45.8	0	3	90	0.01	29.867 
08:10	51.1	51.1	51.1	83	46.1	1	3	90	0.00	29.867 
08:15	51.1	51.1	51.1	84	46.4	0	2	90	0.00	29.869 
08:20	51.1	51.1	51.1	85	46.7	0	2	90	0.01	29.869 
08:25	51.0	51.0	51.0	85	46.7	0	2	90	0.00	29.869 
08:30	50.8	50.8	50.8	86	46.8	1	2	90	0.00	29.863 
08:35	50.8	50.8	50.8	86	46.8	1	3	90	0.00	29.863 
08:40	50.8	50.8	50.8	87	47.1	0	1	90	0.00	29.863 
08:45	50.8	50.8	50.8	87	47.1	0	1	90	0.00	29.862 
08:50	51.0	51.0	51.0	88	47.6	1	3	90	0.00	29.862 
08:55	51.0	51.0	51.0	87	47.3	1	3	90	0.01	29.862 
09:00	51.0	51.0	51.0	87	47.3	0	2	90	0.00	29.862 
09:05	51.0	51.0	51.0	87	47.3	0	1	90	0.00	29.862 
09:10	51.1	51.1	51.1	88	47.7	0	3	90	0.00	29.862 
09:15	51.4	51.4	51.4	88	48.0	1	2	90	0.00	29.864 
09:20	51.6	51.6	51.6	88	48.2	1	3	90	0.00	29.864 
09:25	51.6	51.6	51.6	88	48.2	0	2	90	0.00	29.864 
09:30	51.7	51.7	51.7	88	48.3	0	2	22	0.00	29.858 
09:35	51.9	51.9	51.9	88	48.5	0	2	22	0.00	29.858 
09:40	52.0	52.0	52.0	88	48.6	0	1	22	0.00	29.858 
09:45	52.0	52.0	52.0	88	48.6	0	2	22	0.00	29.867 
09:50	52.0	52.0	52.0	88	48.6	0	1	22	0.00	29.867 
09:55	52.2	52.2	52.2	89	49.1	0	1	22	0.00	29.867 
10:00	52.3	52.3	52.3	89	49.2	0	1	22	0.00	29.867 
10:05	52.5	52.5	52.5	89	49.4	0	1	22	0.01	29.867 
10:10	52.8	52.8	52.8	90	49.9	0	2	22	0.00	29.867 
10:15	52.9	52.9	52.9	90	50.0	0	2	22	0.00	29.867 
10:20	53.1	53.1	53.1	90	50.2	0	1	22	0.00	29.867 
10:25	53.3	53.3	53.3	90	50.4	0	2	22	0.00	29.867 
10:30	53.6	53.6	53.6	91	51.0	0	1	22	0.00	29.869 
10:35	53.9	53.9	53.9	91	51.3	0	1	22	0.00	29.869 
10:40	54.4	54.4	54.4	91	51.8	0	2	22	0.00	29.869 
10:45	54.8	54.8	54.8	91	52.2	0	3	22	0.00	29.862 
10:50	55.1	55.1	55.1	91	52.5	0	2	22	0.00	29.862 
10:55	55.4	55.4	55.4	91	52.8	0	2	22	0.00	29.862 
11:00	55.7	55.7	55.7	91	53.1	1	4	135	0.00	29.857 
11:05	56.0	56.0	56.0	91	53.4	0	3	135	0.00	29.857 
11:10	56.5	56.5	56.5	91	53.9	1	4	135	0.00	29.857 
11:15	56.9	56.9	56.9	90	54.0	1	5	90	0.00	29.850 
11:20	57.2	57.2	57.2	90	54.3	1	4	112	0.00	29.850 
11:25	57.5	57.5	57.5	90	54.6	1	4	112	0.00	29.850 
11:30	57.6	57.6	57.6	89	54.4	0	1	112	0.00	29.833 
11:35	57.6	57.6	57.6	89	54.4	1	4	112	0.00	29.833 
11:40	58.0	58.0	58.0	89	54.8	0	2	112	0.00	29.833 
11:45	58.1	58.1	58.1	89	54.9	1	3	112	0.00	29.828 
11:50	58.4	58.4	58.4	89	55.2	0	2	112	0.00	29.828 
11:55	58.7	58.7	58.7	89	55.5	1	4	135	0.00	29.828 
12:00	58.9	58.9	58.9	88	55.3	1	4	112	0.00	29.822 
12:05	59.2	59.2	59.2	87	55.3	0	2	112	0.00	29.822 
12:10	59.3	59.3	59.3	86	55.1	0	3	112	0.00	29.822 
12:15	59.6	59.6	59.6	85	55.1	1	4	112	0.00	29.829 
12:20	59.8	59.8	59.8	86	55.6	0	3	112	0.00	29.829 
12:25	59.8	59.8	59.8	86	55.6	1	3	112	0.01	29.829 
12:30	59.6	59.6	59.6	86	55.4	0	1	112	0.00	29.831 
12:35	59.5	59.5	59.5	87	55.6	0	1	112	0.01	29.831 
12:40	59.5	59.5	59.5	88	55.9	0	1	112	0.00	29.831 
12:45	59.3	59.3	59.3	89	56.1	0	2	112	0.00	29.821 
12:50	59.3	59.3	59.3	89	56.1	0	1	112	0.00	29.821 
12:55	59.3	59.3	59.3	90	56.4	0	1	112	0.00	29.821 
13:00	59.3	59.3	59.3	90	56.4	0	1	112	0.00	29.819 
13:05	59.5	59.5	59.5	91	56.9	0	1	112	0.00	29.819 
13:10	59.5	59.5	59.5	91	56.9	0	0	---	0.00	29.819 
13:15	59.6	59.6	59.6	91	57.0	0	1	112	0.00	29.817 
13:20	59.8	59.8	59.8	91	57.2	0	1	112	0.00	29.817 
13:25	59.9	59.9	59.9	91	57.3	0	1	112	0.00	29.817 
13:30	60.1	60.1	60.1	91	57.5	0	1	112	0.00	29.814 
13:35	60.4	60.4	60.4	91	57.8	0	2	112	0.00	29.814 
13:40	60.5	60.5	60.5	90	57.5	0	2	112	0.00	29.814 
13:45	60.9	60.9	60.9	90	57.9	0	4	112	0.00	29.807 
13:50	60.9	60.9	60.9	89	57.6	0	3	112	0.00	29.807 
13:55	60.9	60.9	60.9	89	57.6	0	2	112	0.00	29.807 
14:00	61.0	61.0	61.0	89	57.7	0	3	112	0.00	29.805 
14:05	61.0	61.0	61.0	89	57.7	0	1	112	0.00	29.805 
14:10	61.2	61.2	61.2	89	57.9	1	3	112	0.00	29.805 
14:15	61.3	61.3	61.3	89	58.0	0	3	112	0.00	29.803 
14:20	61.6	61.6	61.6	89	58.3	0	2	112	0.00	29.803 
14:25	61.8	61.8	61.8	89	58.5	0	1	112	0.00	29.803 
14:30	62.0	62.0	62.0	88	58.4	0	2	112	0.00	29.801 
14:35	62.0	62.0	62.0	88	58.4	1	4	112	0.00	29.801 
14:40	62.3	62.3	62.3	88	58.7	0	3	112	0.00	29.801 
14:45	62.4	62.4	62.4	87	58.5	0	2	112	0.00	29.801 
14:50	62.6	62.6	62.6	86	58.3	1	4	112	0.00	29.801 
14:55	62.7	62.7	62.7	86	58.4	0	2	112	0.00	29.801 
15:00	63.1	63.1	63.1	86	58.8	1	3	112	0.00	29.794 
15:05	63.5	63.5	63.5	85	58.9	0	2	112	0.00	29.794 
15:10	63.9	63.9	63.9	84	59.0	0	3	112	0.00	29.794 
15:15	64.0	64.0	64.0	84	59.1	0	4	248	0.00	29.791 
15:20	64.3	64.3	64.3	83	59.0	0	2	248	0.00	29.791 
15:25	64.7	64.7	64.7	82	59.1	0	2	248	0.00	29.791 
15:30	65.0	65.0	65.0	81	59.0	0	1	248	0.00	29.786 
15:35	65.5	65.5	65.5	80	59.2	0	4	248	0.00	29.786 
15:40	66.4	66.4	66.4	80	60.0	0	1	112	0.00	29.786 
15:45	66.9	66.9	66.9	77	59.4	0	2	202	0.00	29.783 
15:50	67.3	67.3	67.3	76	59.5	1	4	270	0.00	29.783 
15:55	67.6	67.6	67.6	73	58.6	0	2	270	0.00	29.783 
16:00	67.8	67.8	67.8	71	58.0	0	3	270	0.00	29.775 
16:05	67.9	67.9	67.9	71	58.1	0	3	270	0.00	29.775 
16:10	68.1	68.1	68.1	70	57.9	0	3	270	0.00	29.775 
16:15	68.4	68.4	68.4	70	58.2	1	3	292	0.00	29.766 
16:20	68.9	68.9	68.9	71	59.1	0	3	292	0.00	29.766 
16:25	69.3	69.3	69.3	68	58.3	0	1	292	0.00	29.766 
16:30	69.3	69.3	69.3	67	57.9	0	2	292	0.00	29.765 
16:35	69.3	69.3	69.3	67	57.9	0	2	315	0.00	29.765 
16:40	69.3	69.3	69.3	63	56.2	0	2	315	0.00	29.765 
16:45	69.3	69.3	69.3	65	57.0	0	3	315	0.00	29.754 
16:50	69.4	69.4	69.4	66	57.5	0	2	292	0.00	29.754 
16:55	69.6	69.6	69.6	64	56.9	0	1	292	0.00	29.754 
17:00	69.4	69.4	69.4	66	57.5	0	2	292	0.00	29.749 
17:05	69.1	69.1	69.1	67	57.7	1	4	112	0.00	29.749 
17:10	68.9	68.9	68.9	71	59.1	0	2	112	0.00	29.749 
17:15	68.6	68.6	68.6	72	59.2	0	3	112	0.00	29.758 
17:20	68.3	68.3	68.3	71	58.5	1	5	112	0.00	29.758 
17:25	67.9	67.9	67.9	72	58.5	0	3	112	0.00	29.758 
17:30	67.9	67.9	67.9	73	58.9	0	1	112	0.00	29.764 
17:35	67.8	67.8	67.8	73	58.8	0	2	112	0.00	29.764 
17:40	67.8	67.8	67.8	73	58.8	0	1	112	0.00	29.764 
17:45	67.6	67.6	67.6	72	58.2	0	1	112	0.00	29.768 
17:50	67.4	67.4	67.4	72	58.1	0	2	112	0.00	29.768 
17:55	67.3	67.3	67.3	72	58.0	0	2	112	0.00	29.768 
18:00	67.1	67.1	67.1	73	58.1	0	3	112	0.00	29.769 
18:05	66.9	66.9	66.9	73	58.0	1	2	202	0.00	29.769 
18:10	66.8	66.8	66.8	74	58.2	1	4	112	0.00	29.769 
18:15	66.4	66.4	66.4	76	58.6	0	1	112	0.00	29.769 
18:20	66.1	66.1	66.1	76	58.3	1	3	112	0.00	29.769 
18:25	65.8	65.8	65.8	76	58.0	1	5	112	0.00	29.769 
18:30	65.6	65.6	65.6	76	57.8	1	4	112	0.00	29.770 
18:35	65.5	65.5	65.5	77	58.1	0	3	112	0.00	29.770 
18:40	65.2	65.2	65.2	78	58.2	0	3	112	0.00	29.770 
18:45	65.0	65.0	65.0	79	58.3	0	2	225	0.00	29.784 
18:50	64.8	64.8	64.8	80	58.5	0	2	202	0.00	29.784 
18:55	64.5	64.5	64.5	81	58.5	1	3	135	0.00	29.784 
19:00	64.3	64.3	64.3	81	58.3	0	2	202	0.00	29.788 
19:05	64.2	64.2	64.2	81	58.2	1	3	202	0.00	29.788 
19:10	64.0	64.0	64.0	81	58.0	1	9	0	0.00	29.788 
19:15	63.7	63.7	63.7	79	57.1	2	9	248	0.00	29.804 
19:20	62.4	62.4	62.4	80	56.1	3	9	248	0.04	29.804 
19:25	60.5	60.5	60.5	83	55.3	1	4	270	0.05	29.804 
19:30	59.6	59.6	59.6	86	55.4	1	3	248	0.02	29.823 
19:35	58.9	58.9	58.9	87	55.0	1	3	248	0.01	29.823 
19:40	58.4	58.4	58.4	88	54.9	0	2	248	0.02	29.823 
19:45	58.0	58.0	58.0	89	54.8	0	2	248	0.01	29.808 
19:50	57.6	57.6	57.6	89	54.4	1	2	158	0.00	29.808 
19:55	57.3	57.3	57.3	89	54.1	0	0	---	0.00	29.808 
20:00	57.2	57.2	57.2	89	54.0	0	1	158	0.00	29.793 
20:05	57.2	57.2	57.2	90	54.3	0	0	---	0.00	29.793 
20:10	57.0	57.0	57.0	90	54.1	0	1	158	0.00	29.793 
20:15	56.9	56.9	56.9	90	54.0	0	1	158	0.00	29.803 
20:20	56.7	56.7	56.7	90	53.8	0	0	---	0.00	29.803 
20:25	56.6	56.6	56.6	90	53.7	0	1	158	0.00	29.803 
20:30	56.5	56.5	56.5	90	53.6	0	1	158	0.00	29.812 
20:35	56.3	56.3	56.3	91	53.7	0	1	158	0.00	29.812 
20:40	56.2	56.2	56.2	91	53.6	0	1	158	0.00	29.812 
20:45	56.0	56.0	56.0	91	53.4	0	0	---	0.00	29.817 
20:50	55.9	55.9	55.9	91	53.3	0	0	---	0.00	29.817 
20:55	55.7	55.7	55.7	91	53.1	0	0	---	0.00	29.817 
21:00	55.6	55.6	55.6	91	53.0	0	0	---	0.00	29.826 
21:05	55.3	55.3	55.3	91	52.7	0	0	---	0.00	29.826 
21:10	55.1	55.1	55.1	92	52.8	0	0	---	0.00	29.826 
21:15	55.0	55.0	55.0	92	52.7	0	0	---	0.00	29.826 
21:20	54.7	54.7	54.7	92	52.4	0	0	---	0.00	29.826 
21:25	54.4	54.4	54.4	92	52.1	0	0	---	0.01	29.826 
21:30	54.2	54.2	54.2	92	51.9	0	0	---	0.00	29.826 
21:35	54.1	54.1	54.1	92	51.8	0	0	---	0.00	29.826 
21:40	53.9	53.9	53.9	92	51.6	0	0	---	0.00	29.826 
21:45	53.8	53.8	53.8	92	51.5	0	0	---	0.00	29.826 
21:50	53.6	53.6	53.6	92	51.3	0	0	---	0.00	29.826 
21:55	53.5	53.5	53.5	92	51.2	0	0	---	0.00	29.826 
22:00	53.3	53.3	53.3	92	51.0	0	0	---	0.00	29.828 
22:05	53.2	53.2	53.2	92	50.9	0	0	---	0.00	29.828 
22:10	53.2	53.2	53.2	93	51.2	0	0	---	0.00	29.828 
22:15	53.1	53.1	53.1	93	51.1	0	0	---	0.00	29.830 
22:20	52.8	52.8	52.8	93	50.8	0	0	---	0.00	29.830 
22:25	52.8	52.8	52.8	93	50.8	0	0	---	0.00	29.830 
22:30	52.6	52.6	52.6	93	50.6	0	0	---	0.00	29.830 
22:35	52.6	52.6	52.6	93	50.6	0	0	---	0.00	29.830 
22:40	52.5	52.5	52.5	93	50.5	0	0	---	0.00	29.830 
22:45	52.3	52.3	52.3	93	50.3	0	0	---	0.00	29.830 
22:50	52.3	52.3	52.3	93	50.3	0	0	---	0.00	29.830 
22:55	52.3	52.3	52.3	94	50.6	0	0	---	0.00	29.830 
23:00	52.3	52.3	52.3	94	50.6	0	0	---	0.00	29.826 
23:05	52.3	52.3	52.3	94	50.6	0	0	---	0.00	29.826 
23:10	52.2	52.2	52.2	94	50.5	0	1	158	0.00	29.826 
23:15	52.6	52.6	52.6	94	50.9	0	1	158	0.00	29.831 
23:20	52.9	52.9	52.9	94	51.2	0	0	---	0.00	29.831 
23:25	53.2	53.2	53.2	95	51.8	0	0	---	0.00	29.831 
23:30	53.3	53.3	53.3	95	51.9	0	1	158	0.00	29.827 
23:35	53.5	53.5	53.5	95	52.1	0	0	---	0.00	29.827 
23:40	53.6	53.6	53.6	95	52.2	0	0	---	0.00	29.827 
23:45	53.8	53.8	53.8	95	52.4	0	0	---	0.00	29.830 
23:50	53.8	53.8	53.8	95	52.4	0	0	---	0.00	29.830 
23:55	53.9	53.9	53.9	95	52.5	0	0	---	0.00	29.830 

CoCoRaHS
IN-AL-39
A2 Web Hosting
Creative Commons License
GoDaddy
search engine by freefind advanced

loaded 2018-11-13 17:19:11 • last modified 2010-11-18 10:43:29
Privacy PolicyDisclaimer
• wx.awcolley.com is powered by PmWiki v.2002016 •
• all content (unless otherwise noted) © 2018 A W Colley